sensor_id;sensor_type;location;lat;lon;timestamp;P1;P2;P0
48893;PMS5003;34710;35.798;139.446;2022-09-03T00:01:40;9;9;
48893;PMS5003;34710;35.798;139.446;2022-09-03T00:04:15;11;11;
48893;PMS5003;34710;35.798;139.446;2022-09-03T00:06:54;11;10;
48893;PMS5003;34710;35.798;139.446;2022-09-03T00:09:30;14;12;
48893;PMS5003;34710;35.798;139.446;2022-09-03T00:12:07;13;9;
48893;PMS5003;34710;35.798;139.446;2022-09-03T00:14:42;12;11;
48893;PMS5003;34710;35.798;139.446;2022-09-03T00:17:17;8;8;
48893;PMS5003;34710;35.798;139.446;2022-09-03T00:19:51;11;9;
48893;PMS5003;34710;35.798;139.446;2022-09-03T00:22:27;11;9;
48893;PMS5003;34710;35.798;139.446;2022-09-03T00:25:01;11;11;
48893;PMS5003;34710;35.798;139.446;2022-09-03T00:27:38;10;10;
48893;PMS5003;34710;35.798;139.446;2022-09-03T00:30:11;11;9;
48893;PMS5003;34710;35.798;139.446;2022-09-03T00:32:43;10;10;
48893;PMS5003;34710;35.798;139.446;2022-09-03T00:35:19;10;8;
48893;PMS5003;34710;35.798;139.446;2022-09-03T00:37:53;9;8;
48893;PMS5003;34710;35.798;139.446;2022-09-03T00:40:43;8;8;
48893;PMS5003;34710;35.798;139.446;2022-09-03T00:43:25;8;8;
48893;PMS5003;34710;35.798;139.446;2022-09-03T00:46:07;10;8;
48893;PMS5003;34710;35.798;139.446;2022-09-03T00:48:50;6;6;
48893;PMS5003;34710;35.798;139.446;2022-09-03T00:51:41;9;8;
48893;PMS5003;34710;35.798;139.446;2022-09-03T00:54:19;10;7;
48893;PMS5003;34710;35.798;139.446;2022-09-03T00:57:03;7;7;
48893;PMS5003;34710;35.798;139.446;2022-09-03T00:59:40;9;8;
48893;PMS5003;34710;35.798;139.446;2022-09-03T01:02:22;8;6;
48893;PMS5003;34710;35.798;139.446;2022-09-03T01:04:58;6;6;
48893;PMS5003;34710;35.798;139.446;2022-09-03T01:07:39;9;9;
48893;PMS5003;34710;35.798;139.446;2022-09-03T01:10:17;8;7;
48893;PMS5003;34710;35.798;139.446;2022-09-03T01:12:58;9;9;
48893;PMS5003;34710;35.798;139.446;2022-09-03T01:15:33;9;8;
48893;PMS5003;34710;35.798;139.446;2022-09-03T01:18:12;10;9;
48893;PMS5003;34710;35.798;139.446;2022-09-03T01:20:51;10;9;
48893;PMS5003;34710;35.798;139.446;2022-09-03T01:24:10;8;8;
48893;PMS5003;34710;35.798;139.446;2022-09-03T01:26:58;9;7;
48893;PMS5003;34710;35.798;139.446;2022-09-03T01:29:42;9;8;
48893;PMS5003;34710;35.798;139.446;2022-09-03T01:32:21;8;7;
48893;PMS5003;34710;35.798;139.446;2022-09-03T01:35:01;8;8;
48893;PMS5003;34710;35.798;139.446;2022-09-03T01:37:40;8;8;
48893;PMS5003;34710;35.798;139.446;2022-09-03T01:40:29;9;9;
48893;PMS5003;34710;35.798;139.446;2022-09-03T01:43:11;10;10;
48893;PMS5003;34710;35.798;139.446;2022-09-03T01:45:52;12;9;
48893;PMS5003;34710;35.798;139.446;2022-09-03T01:48:31;13;11;
48893;PMS5003;34710;35.798;139.446;2022-09-03T01:51:11;22;17;
48893;PMS5003;34710;35.798;139.446;2022-09-03T01:54:01;25;22;
48893;PMS5003;34710;35.798;139.446;2022-09-03T01:54:44;24;21;
48893;PMS5003;34710;35.798;139.446;2022-09-03T01:57:32;32;20;
48893;PMS5003;34710;35.798;139.446;2022-09-03T02:00:14;16;16;
48893;PMS5003;34710;35.798;139.446;2022-09-03T02:02:46;16;14;
48893;PMS5003;34710;35.798;139.446;2022-09-03T02:05:19;13;13;
48893;PMS5003;34710;35.798;139.446;2022-09-03T02:07:55;19;10;
48893;PMS5003;34710;35.798;139.446;2022-09-03T02:10:26;13;13;
48893;PMS5003;34710;35.798;139.446;2022-09-03T02:12:59;14;11;
48893;PMS5003;34710;35.798;139.446;2022-09-03T02:15:33;10;8;
48893;PMS5003;34710;35.798;139.446;2022-09-03T02:18:04;9;9;
48893;PMS5003;34710;35.798;139.446;2022-09-03T02:20:39;14;13;
48893;PMS5003;34710;35.798;139.446;2022-09-03T02:23:09;15;15;
48893;PMS5003;34710;35.798;139.446;2022-09-03T02:25:40;17;16;
48893;PMS5003;34710;35.798;139.446;2022-09-03T02:28:13;14;11;
48893;PMS5003;34710;35.798;139.446;2022-09-03T02:30:42;15;13;
48893;PMS5003;34710;35.798;139.446;2022-09-03T02:33:11;12;12;
48893;PMS5003;34710;35.798;139.446;2022-09-03T02:35:42;13;12;
48893;PMS5003;34710;35.798;139.446;2022-09-03T02:38:12;12;12;
48893;PMS5003;34710;35.798;139.446;2022-09-03T02:40:44;17;13;
48893;PMS5003;34710;35.798;139.446;2022-09-03T02:43:14;12;12;
48893;PMS5003;34710;35.798;139.446;2022-09-03T02:45:54;12;12;
48893;PMS5003;34710;35.798;139.446;2022-09-03T02:48:28;22;14;
48893;PMS5003;34710;35.798;139.446;2022-09-03T02:50:57;13;13;
48893;PMS5003;34710;35.798;139.446;2022-09-03T02:53:27;14;14;
48893;PMS5003;34710;35.798;139.446;2022-09-03T02:55:58;13;13;
48893;PMS5003;34710;35.798;139.446;2022-09-03T02:58:28;14;13;
48893;PMS5003;34710;35.798;139.446;2022-09-03T03:00:58;13;13;
48893;PMS5003;34710;35.798;139.446;2022-09-03T03:03:30;14;13;
48893;PMS5003;34710;35.798;139.446;2022-09-03T03:06:02;18;15;
48893;PMS5003;34710;35.798;139.446;2022-09-03T03:08:35;18;17;
48893;PMS5003;34710;35.798;139.446;2022-09-03T03:11:06;13;13;
48893;PMS5003;34710;35.798;139.446;2022-09-03T03:13:35;16;16;
48893;PMS5003;34710;35.798;139.446;2022-09-03T03:16:05;15;15;
48893;PMS5003;34710;35.798;139.446;2022-09-03T03:18:34;15;15;
48893;PMS5003;34710;35.798;139.446;2022-09-03T03:21:04;15;15;
48893;PMS5003;34710;35.798;139.446;2022-09-03T03:23:36;16;16;
48893;PMS5003;34710;35.798;139.446;2022-09-03T03:26:06;15;15;
48893;PMS5003;34710;35.798;139.446;2022-09-03T03:28:37;16;16;
48893;PMS5003;34710;35.798;139.446;2022-09-03T03:31:07;16;15;
48893;PMS5003;34710;35.798;139.446;2022-09-03T03:33:38;15;15;
48893;PMS5003;34710;35.798;139.446;2022-09-03T03:36:09;18;18;
48893;PMS5003;34710;35.798;139.446;2022-09-03T03:38:39;17;16;
48893;PMS5003;34710;35.798;139.446;2022-09-03T03:41:12;13;12;
48893;PMS5003;34710;35.798;139.446;2022-09-03T03:43:43;14;13;
48893;PMS5003;34710;35.798;139.446;2022-09-03T03:46:13;16;16;
48893;PMS5003;34710;35.798;139.446;2022-09-03T03:48:42;19;17;
48893;PMS5003;34710;35.798;139.446;2022-09-03T03:51:13;14;14;
48893;PMS5003;34710;35.798;139.446;2022-09-03T03:53:43;20;15;
48893;PMS5003;34710;35.798;139.446;2022-09-03T03:56:13;16;16;
48893;PMS5003;34710;35.798;139.446;2022-09-03T03:58:43;16;16;
48893;PMS5003;34710;35.798;139.446;2022-09-03T04:01:13;15;15;
48893;PMS5003;34710;35.798;139.446;2022-09-03T04:03:44;16;16;
48893;PMS5003;34710;35.798;139.446;2022-09-03T04:06:14;16;16;
48893;PMS5003;34710;35.798;139.446;2022-09-03T04:08:45;16;16;
48893;PMS5003;34710;35.798;139.446;2022-09-03T04:11:16;20;19;
48893;PMS5003;34710;35.798;139.446;2022-09-03T04:13:48;21;18;
48893;PMS5003;34710;35.798;139.446;2022-09-03T04:16:18;21;17;
48893;PMS5003;34710;35.798;139.446;2022-09-03T04:18:48;19;17;
48893;PMS5003;34710;35.798;139.446;2022-09-03T04:21:19;16;16;
48893;PMS5003;34710;35.798;139.446;2022-09-03T04:23:50;11;11;
48893;PMS5003;34710;35.798;139.446;2022-09-03T04:26:23;21;14;
48893;PMS5003;34710;35.798;139.446;2022-09-03T04:28:55;15;12;
48893;PMS5003;34710;35.798;139.446;2022-09-03T04:31:24;16;16;
48893;PMS5003;34710;35.798;139.446;2022-09-03T04:33:53;15;15;
48893;PMS5003;34710;35.798;139.446;2022-09-03T04:36:23;17;13;
48893;PMS5003;34710;35.798;139.446;2022-09-03T04:38:54;16;15;
48893;PMS5003;34710;35.798;139.446;2022-09-03T04:41:25;14;14;
48893;PMS5003;34710;35.798;139.446;2022-09-03T04:43:57;13;13;
48893;PMS5003;34710;35.798;139.446;2022-09-03T04:46:27;13;12;
48893;PMS5003;34710;35.798;139.446;2022-09-03T04:48:57;15;15;
48893;PMS5003;34710;35.798;139.446;2022-09-03T04:51:27;12;11;
48893;PMS5003;34710;35.798;139.446;2022-09-03T04:53:57;11;11;
48893;PMS5003;34710;35.798;139.446;2022-09-03T04:56:28;13;12;
48893;PMS5003;34710;35.798;139.446;2022-09-03T04:59:01;13;11;
48893;PMS5003;34710;35.798;139.446;2022-09-03T05:01:32;13;13;
48893;PMS5003;34710;35.798;139.446;2022-09-03T05:04:03;13;13;
48893;PMS5003;34710;35.798;139.446;2022-09-03T05:06:34;11;11;
48893;PMS5003;34710;35.798;139.446;2022-09-03T05:09:05;14;12;
48893;PMS5003;34710;35.798;139.446;2022-09-03T05:11:35;14;13;
48893;PMS5003;34710;35.798;139.446;2022-09-03T05:14:04;13;13;
48893;PMS5003;34710;35.798;139.446;2022-09-03T05:16:33;13;11;
48893;PMS5003;34710;35.798;139.446;2022-09-03T05:19:02;14;12;
48893;PMS5003;34710;35.798;139.446;2022-09-03T05:21:32;10;10;
48893;PMS5003;34710;35.798;139.446;2022-09-03T05:24:03;14;13;
48893;PMS5003;34710;35.798;139.446;2022-09-03T05:26:35;12;12;
48893;PMS5003;34710;35.798;139.446;2022-09-03T05:29:05;13;11;
48893;PMS5003;34710;35.798;139.446;2022-09-03T05:31:35;11;11;
48893;PMS5003;34710;35.798;139.446;2022-09-03T05:34:05;7;7;
48893;PMS5003;34710;35.798;139.446;2022-09-03T05:36:36;17;12;
48893;PMS5003;34710;35.798;139.446;2022-09-03T05:39:05;8;8;
48893;PMS5003;34710;35.798;139.446;2022-09-03T05:41:34;11;10;
48893;PMS5003;34710;35.798;139.446;2022-09-03T05:44:04;13;11;
48893;PMS5003;34710;35.798;139.446;2022-09-03T05:46:33;8;8;
48893;PMS5003;34710;35.798;139.446;2022-09-03T05:49:03;11;10;
48893;PMS5003;34710;35.798;139.446;2022-09-03T05:51:34;10;8;
48893;PMS5003;34710;35.798;139.446;2022-09-03T05:54:04;10;10;
48893;PMS5003;34710;35.798;139.446;2022-09-03T05:56:33;15;11;
48893;PMS5003;34710;35.798;139.446;2022-09-03T05:59:05;10;9;
48893;PMS5003;34710;35.798;139.446;2022-09-03T06:01:36;10;10;
48893;PMS5003;34710;35.798;139.446;2022-09-03T06:04:07;11;11;
48893;PMS5003;34710;35.798;139.446;2022-09-03T06:06:39;10;10;
48893;PMS5003;34710;35.798;139.446;2022-09-03T06:09:10;9;9;
48893;PMS5003;34710;35.798;139.446;2022-09-03T06:11:41;12;9;
48893;PMS5003;34710;35.798;139.446;2022-09-03T06:14:11;9;9;
48893;PMS5003;34710;35.798;139.446;2022-09-03T06:16:43;9;9;
48893;PMS5003;34710;35.798;139.446;2022-09-03T06:19:14;11;11;
48893;PMS5003;34710;35.798;139.446;2022-09-03T06:21:44;10;10;
48893;PMS5003;34710;35.798;139.446;2022-09-03T06:24:16;14;14;
48893;PMS5003;34710;35.798;139.446;2022-09-03T06:26:46;12;12;
48893;PMS5003;34710;35.798;139.446;2022-09-03T06:29:16;11;11;
48893;PMS5003;34710;35.798;139.446;2022-09-03T06:31:45;14;11;
48893;PMS5003;34710;35.798;139.446;2022-09-03T06:34:14;14;11;
48893;PMS5003;34710;35.798;139.446;2022-09-03T06:36:44;9;9;
48893;PMS5003;34710;35.798;139.446;2022-09-03T06:39:14;15;13;
48893;PMS5003;34710;35.798;139.446;2022-09-03T06:41:43;13;12;
48893;PMS5003;34710;35.798;139.446;2022-09-03T06:44:12;11;11;
48893;PMS5003;34710;35.798;139.446;2022-09-03T06:46:41;12;12;
48893;PMS5003;34710;35.798;139.446;2022-09-03T06:49:11;14;14;
48893;PMS5003;34710;35.798;139.446;2022-09-03T06:51:41;12;12;
48893;PMS5003;34710;35.798;139.446;2022-09-03T06:54:10;15;15;
48893;PMS5003;34710;35.798;139.446;2022-09-03T06:56:40;18;13;
48893;PMS5003;34710;35.798;139.446;2022-09-03T06:59:10;14;12;
48893;PMS5003;34710;35.798;139.446;2022-09-03T07:01:40;12;12;
48893;PMS5003;34710;35.798;139.446;2022-09-03T07:04:11;14;14;
48893;PMS5003;34710;35.798;139.446;2022-09-03T07:06:42;16;16;
48893;PMS5003;34710;35.798;139.446;2022-09-03T07:09:12;18;13;
48893;PMS5003;34710;35.798;139.446;2022-09-03T07:11:41;15;15;
48893;PMS5003;34710;35.798;139.446;2022-09-03T07:14:10;12;11;
48893;PMS5003;34710;35.798;139.446;2022-09-03T07:16:41;16;13;
48893;PMS5003;34710;35.798;139.446;2022-09-03T07:19:11;15;14;
48893;PMS5003;34710;35.798;139.446;2022-09-03T07:21:40;14;12;
48893;PMS5003;34710;35.798;139.446;2022-09-03T07:24:10;13;13;
48893;PMS5003;34710;35.798;139.446;2022-09-03T07:26:40;13;12;
48893;PMS5003;34710;35.798;139.446;2022-09-03T07:29:10;14;13;
48893;PMS5003;34710;35.798;139.446;2022-09-03T07:31:40;16;14;
48893;PMS5003;34710;35.798;139.446;2022-09-03T07:34:10;17;15;
48893;PMS5003;34710;35.798;139.446;2022-09-03T07:36:41;15;13;
48893;PMS5003;34710;35.798;139.446;2022-09-03T07:39:12;12;10;
48893;PMS5003;34710;35.798;139.446;2022-09-03T07:41:41;23;12;
48893;PMS5003;34710;35.798;139.446;2022-09-03T07:44:11;13;13;
48893;PMS5003;34710;35.798;139.446;2022-09-03T07:46:42;14;13;
48893;PMS5003;34710;35.798;139.446;2022-09-03T07:49:12;16;12;
48893;PMS5003;34710;35.798;139.446;2022-09-03T07:51:41;12;12;
48893;PMS5003;34710;35.798;139.446;2022-09-03T07:54:11;15;12;
48893;PMS5003;34710;35.798;139.446;2022-09-03T07:56:40;13;10;
48893;PMS5003;34710;35.798;139.446;2022-09-03T07:59:09;10;10;
48893;PMS5003;34710;35.798;139.446;2022-09-03T08:01:39;17;11;
48893;PMS5003;34710;35.798;139.446;2022-09-03T08:04:08;17;10;
48893;PMS5003;34710;35.798;139.446;2022-09-03T08:06:37;13;11;
48893;PMS5003;34710;35.798;139.446;2022-09-03T08:09:08;13;12;
48893;PMS5003;34710;35.798;139.446;2022-09-03T08:11:39;12;12;
48893;PMS5003;34710;35.798;139.446;2022-09-03T08:14:10;12;11;
48893;PMS5003;34710;35.798;139.446;2022-09-03T08:16:40;11;11;
48893;PMS5003;34710;35.798;139.446;2022-09-03T08:19:10;11;10;
48893;PMS5003;34710;35.798;139.446;2022-09-03T08:21:41;14;11;
48893;PMS5003;34710;35.798;139.446;2022-09-03T08:24:10;11;10;
48893;PMS5003;34710;35.798;139.446;2022-09-03T08:26:42;14;11;
48893;PMS5003;34710;35.798;139.446;2022-09-03T08:29:12;13;12;
48893;PMS5003;34710;35.798;139.446;2022-09-03T08:31:42;11;10;
48893;PMS5003;34710;35.798;139.446;2022-09-03T08:34:11;13;12;
48893;PMS5003;34710;35.798;139.446;2022-09-03T08:36:40;12;11;
48893;PMS5003;34710;35.798;139.446;2022-09-03T08:39:10;12;12;
48893;PMS5003;34710;35.798;139.446;2022-09-03T08:41:46;16;13;
48893;PMS5003;34710;35.798;139.446;2022-09-03T08:44:40;14;12;
48893;PMS5003;34710;35.798;139.446;2022-09-03T08:47:14;10;10;
48893;PMS5003;34710;35.798;139.446;2022-09-03T08:49:49;11;11;
48893;PMS5003;34710;35.798;139.446;2022-09-03T08:52:24;11;11;
48893;PMS5003;34710;35.798;139.446;2022-09-03T08:55:03;14;12;
48893;PMS5003;34710;35.798;139.446;2022-09-03T08:57:46;14;12;
48893;PMS5003;34710;35.798;139.446;2022-09-03T09:00:18;11;10;
48893;PMS5003;34710;35.798;139.446;2022-09-03T09:02:54;14;13;
48893;PMS5003;34710;35.798;139.446;2022-09-03T09:05:38;13;13;
48893;PMS5003;34710;35.798;139.446;2022-09-03T09:08:17;12;12;
48893;PMS5003;34710;35.798;139.446;2022-09-03T09:10:57;14;11;
48893;PMS5003;34710;35.798;139.446;2022-09-03T09:13:37;14;12;
48893;PMS5003;34710;35.798;139.446;2022-09-03T09:16:14;12;10;
48893;PMS5003;34710;35.798;139.446;2022-09-03T09:18:52;14;10;
48893;PMS5003;34710;35.798;139.446;2022-09-03T09:21:32;12;9;
48893;PMS5003;34710;35.798;139.446;2022-09-03T09:24:07;11;11;
48893;PMS5003;34710;35.798;139.446;2022-09-03T09:26:45;10;10;
48893;PMS5003;34710;35.798;139.446;2022-09-03T09:29:14;11;10;
48893;PMS5003;34710;35.798;139.446;2022-09-03T09:31:44;12;11;
48893;PMS5003;34710;35.798;139.446;2022-09-03T09:34:14;14;11;
48893;PMS5003;34710;35.798;139.446;2022-09-03T09:36:45;10;8;
48893;PMS5003;34710;35.798;139.446;2022-09-03T09:39:18;11;11;
48893;PMS5003;34710;35.798;139.446;2022-09-03T09:42:05;13;11;
48893;PMS5003;34710;35.798;139.446;2022-09-03T09:44:35;12;11;
48893;PMS5003;34710;35.798;139.446;2022-09-03T09:47:06;11;10;
48893;PMS5003;34710;35.798;139.446;2022-09-03T09:49:42;9;9;
48893;PMS5003;34710;35.798;139.446;2022-09-03T09:52:21;12;11;
48893;PMS5003;34710;35.798;139.446;2022-09-03T09:54:52;12;12;
48893;PMS5003;34710;35.798;139.446;2022-09-03T09:57:33;13;10;
48893;PMS5003;34710;35.798;139.446;2022-09-03T10:00:05;11;10;
48893;PMS5003;34710;35.798;139.446;2022-09-03T10:02:36;11;9;
48893;PMS5003;34710;35.798;139.446;2022-09-03T10:05:14;10;10;
48893;PMS5003;34710;35.798;139.446;2022-09-03T10:07:53;10;9;
48893;PMS5003;34710;35.798;139.446;2022-09-03T10:10:24;10;10;
48893;PMS5003;34710;35.798;139.446;2022-09-03T10:12:56;9;9;
48893;PMS5003;34710;35.798;139.446;2022-09-03T10:15:32;12;10;
48893;PMS5003;34710;35.798;139.446;2022-09-03T10:18:08;11;11;
48893;PMS5003;34710;35.798;139.446;2022-09-03T10:20:45;12;12;
48893;PMS5003;34710;35.798;139.446;2022-09-03T10:23:23;17;12;
48893;PMS5003;34710;35.798;139.446;2022-09-03T10:25:58;15;13;
48893;PMS5003;34710;35.798;139.446;2022-09-03T10:28:30;14;14;
48893;PMS5003;34710;35.798;139.446;2022-09-03T10:31:21;17;13;
48893;PMS5003;34710;35.798;139.446;2022-09-03T10:34:11;10;9;
48893;PMS5003;34710;35.798;139.446;2022-09-03T10:36:49;9;9;
48893;PMS5003;34710;35.798;139.446;2022-09-03T10:39:28;14;11;
48893;PMS5003;34710;35.798;139.446;2022-09-03T10:42:08;12;10;
48893;PMS5003;34710;35.798;139.446;2022-09-03T10:45:02;13;10;
48893;PMS5003;34710;35.798;139.446;2022-09-03T10:47:46;12;11;
48893;PMS5003;34710;35.798;139.446;2022-09-03T10:50:31;12;11;
48893;PMS5003;34710;35.798;139.446;2022-09-03T10:53:12;16;13;
48893;PMS5003;34710;35.798;139.446;2022-09-03T10:55:48;11;10;
48893;PMS5003;34710;35.798;139.446;2022-09-03T10:58:29;11;6;
48893;PMS5003;34710;35.798;139.446;2022-09-03T11:01:14;7;7;
48893;PMS5003;34710;35.798;139.446;2022-09-03T11:03:52;11;11;
48893;PMS5003;34710;35.798;139.446;2022-09-03T11:06:38;8;8;
48893;PMS5003;34710;35.798;139.446;2022-09-03T11:09:16;12;10;
48893;PMS5003;34710;35.798;139.446;2022-09-03T11:11:50;8;8;
48893;PMS5003;34710;35.798;139.446;2022-09-03T11:14:27;9;9;
48893;PMS5003;34710;35.798;139.446;2022-09-03T11:17:04;8;8;
48893;PMS5003;34710;35.798;139.446;2022-09-03T11:19:41;10;10;
48893;PMS5003;34710;35.798;139.446;2022-09-03T11:22:15;12;10;
48893;PMS5003;34710;35.798;139.446;2022-09-03T11:24:48;10;9;
48893;PMS5003;34710;35.798;139.446;2022-09-03T11:27:25;9;9;
48893;PMS5003;34710;35.798;139.446;2022-09-03T11:30:04;8;8;
48893;PMS5003;34710;35.798;139.446;2022-09-03T11:32:42;8;8;
48893;PMS5003;34710;35.798;139.446;2022-09-03T11:35:22;11;9;
48893;PMS5003;34710;35.798;139.446;2022-09-03T11:37:57;15;11;
48893;PMS5003;34710;35.798;139.446;2022-09-03T11:40:31;9;9;
48893;PMS5003;34710;35.798;139.446;2022-09-03T11:43:08;12;9;
48893;PMS5003;34710;35.798;139.446;2022-09-03T11:45:40;10;8;
48893;PMS5003;34710;35.798;139.446;2022-09-03T11:48:18;13;11;
48893;PMS5003;34710;35.798;139.446;2022-09-03T11:51:00;21;9;
48893;PMS5003;34710;35.798;139.446;2022-09-03T11:53:33;12;10;
48893;PMS5003;34710;35.798;139.446;2022-09-03T11:56:16;13;10;
48893;PMS5003;34710;35.798;139.446;2022-09-03T11:58:56;9;9;
48893;PMS5003;34710;35.798;139.446;2022-09-03T12:01:29;11;8;
48893;PMS5003;34710;35.798;139.446;2022-09-03T12:04:01;9;8;
48893;PMS5003;34710;35.798;139.446;2022-09-03T12:06:42;12;9;
48893;PMS5003;34710;35.798;139.446;2022-09-03T12:09:33;9;9;
48893;PMS5003;34710;35.798;139.446;2022-09-03T12:12:23;8;7;
48893;PMS5003;34710;35.798;139.446;2022-09-03T12:15:09;11;9;
48893;PMS5003;34710;35.798;139.446;2022-09-03T12:17:49;11;10;
48893;PMS5003;34710;35.798;139.446;2022-09-03T12:20:26;16;10;
48893;PMS5003;34710;35.798;139.446;2022-09-03T12:22:55;10;9;
48893;PMS5003;34710;35.798;139.446;2022-09-03T12:25:26;16;8;
48893;PMS5003;34710;35.798;139.446;2022-09-03T12:27:55;8;8;
48893;PMS5003;34710;35.798;139.446;2022-09-03T12:30:27;11;9;
48893;PMS5003;34710;35.798;139.446;2022-09-03T12:33:02;13;11;
48893;PMS5003;34710;35.798;139.446;2022-09-03T12:35:32;12;10;
48893;PMS5003;34710;35.798;139.446;2022-09-03T12:38:02;10;7;
48893;PMS5003;34710;35.798;139.446;2022-09-03T12:40:31;12;10;
48893;PMS5003;34710;35.798;139.446;2022-09-03T12:43:11;10;10;
48893;PMS5003;34710;35.798;139.446;2022-09-03T12:45:42;9;9;
48893;PMS5003;34710;35.798;139.446;2022-09-03T12:48:16;12;10;
48893;PMS5003;34710;35.798;139.446;2022-09-03T12:50:47;9;9;
48893;PMS5003;34710;35.798;139.446;2022-09-03T12:53:26;13;11;
48893;PMS5003;34710;35.798;139.446;2022-09-03T12:55:58;11;10;
48893;PMS5003;34710;35.798;139.446;2022-09-03T12:58:30;10;8;
48893;PMS5003;34710;35.798;139.446;2022-09-03T13:01:06;7;7;
48893;PMS5003;34710;35.798;139.446;2022-09-03T13:03:43;10;8;
48893;PMS5003;34710;35.798;139.446;2022-09-03T13:06:17;10;8;
48893;PMS5003;34710;35.798;139.446;2022-09-03T13:08:50;23;10;
48893;PMS5003;34710;35.798;139.446;2022-09-03T13:11:24;9;9;
48893;PMS5003;34710;35.798;139.446;2022-09-03T13:14:00;11;9;
48893;PMS5003;34710;35.798;139.446;2022-09-03T13:16:40;11;11;
48893;PMS5003;34710;35.798;139.446;2022-09-03T13:19:19;12;10;
48893;PMS5003;34710;35.798;139.446;2022-09-03T13:21:59;23;9;
48893;PMS5003;34710;35.798;139.446;2022-09-03T13:24:44;15;9;
48893;PMS5003;34710;35.798;139.446;2022-09-03T13:27:30;11;9;
48893;PMS5003;34710;35.798;139.446;2022-09-03T13:30:07;10;10;
48893;PMS5003;34710;35.798;139.446;2022-09-03T13:32:45;13;11;
48893;PMS5003;34710;35.798;139.446;2022-09-03T13:35:26;22;11;
48893;PMS5003;34710;35.798;139.446;2022-09-03T13:38:02;12;10;
48893;PMS5003;34710;35.798;139.446;2022-09-03T13:40:43;11;9;
48893;PMS5003;34710;35.798;139.446;2022-09-03T13:43:21;12;11;
48893;PMS5003;34710;35.798;139.446;2022-09-03T13:45:58;15;11;
48893;PMS5003;34710;35.798;139.446;2022-09-03T13:48:35;11;9;
48893;PMS5003;34710;35.798;139.446;2022-09-03T13:51:08;13;10;
48893;PMS5003;34710;35.798;139.446;2022-09-03T13:53:45;15;10;
48893;PMS5003;34710;35.798;139.446;2022-09-03T13:56:27;14;9;
48893;PMS5003;34710;35.798;139.446;2022-09-03T13:59:04;14;9;
48893;PMS5003;34710;35.798;139.446;2022-09-03T14:01:42;13;11;
48893;PMS5003;34710;35.798;139.446;2022-09-03T14:04:27;16;14;
48893;PMS5003;34710;35.798;139.446;2022-09-03T14:07:07;13;12;
48893;PMS5003;34710;35.798;139.446;2022-09-03T14:09:47;26;13;
48893;PMS5003;34710;35.798;139.446;2022-09-03T14:12:28;18;14;
48893;PMS5003;34710;35.798;139.446;2022-09-03T14:15:08;30;15;
48893;PMS5003;34710;35.798;139.446;2022-09-03T14:17:55;11;11;
48893;PMS5003;34710;35.798;139.446;2022-09-03T14:20:37;14;13;
48893;PMS5003;34710;35.798;139.446;2022-09-03T14:23:20;14;12;
48893;PMS5003;34710;35.798;139.446;2022-09-03T14:25:59;16;12;
48893;PMS5003;34710;35.798;139.446;2022-09-03T14:28:33;14;12;
48893;PMS5003;34710;35.798;139.446;2022-09-03T14:31:08;14;10;
48893;PMS5003;34710;35.798;139.446;2022-09-03T14:33:46;16;13;
48893;PMS5003;34710;35.798;139.446;2022-09-03T14:36:29;12;10;
48893;PMS5003;34710;35.798;139.446;2022-09-03T14:39:15;10;10;
48893;PMS5003;34710;35.798;139.446;2022-09-03T14:41:58;11;10;
48893;PMS5003;34710;35.798;139.446;2022-09-03T14:44:46;13;9;
48893;PMS5003;34710;35.798;139.446;2022-09-03T14:47:32;12;7;
48893;PMS5003;34710;35.798;139.446;2022-09-03T14:50:23;15;11;
48893;PMS5003;34710;35.798;139.446;2022-09-03T14:53:16;12;8;
48893;PMS5003;34710;35.798;139.446;2022-09-03T14:56:09;10;9;
48893;PMS5003;34710;35.798;139.446;2022-09-03T14:58:58;10;9;
48893;PMS5003;34710;35.798;139.446;2022-09-03T15:01:43;25;10;
48893;PMS5003;34710;35.798;139.446;2022-09-03T15:04:23;11;11;
48893;PMS5003;34710;35.798;139.446;2022-09-03T15:05:05;10;10;
48893;PMS5003;34710;35.798;139.446;2022-09-03T15:07:42;9;7;
48893;PMS5003;34710;35.798;139.446;2022-09-03T15:10:19;11;9;
48893;PMS5003;34710;35.798;139.446;2022-09-03T15:12:56;12;12;
48893;PMS5003;34710;35.798;139.446;2022-09-03T15:15:35;10;10;
48893;PMS5003;34710;35.798;139.446;2022-09-03T15:18:24;14;12;
48893;PMS5003;34710;35.798;139.446;2022-09-03T15:20:59;11;10;
48893;PMS5003;34710;35.798;139.446;2022-09-03T15:23:45;15;9;
48893;PMS5003;34710;35.798;139.446;2022-09-03T15:26:35;12;9;
48893;PMS5003;34710;35.798;139.446;2022-09-03T15:29:18;14;12;
48893;PMS5003;34710;35.798;139.446;2022-09-03T15:31:59;16;11;
48893;PMS5003;34710;35.798;139.446;2022-09-03T15:34:41;9;9;
48893;PMS5003;34710;35.798;139.446;2022-09-03T15:37:22;14;10;
48893;PMS5003;34710;35.798;139.446;2022-09-03T15:40:00;9;9;
48893;PMS5003;34710;35.798;139.446;2022-09-03T15:42:34;10;8;
48893;PMS5003;34710;35.798;139.446;2022-09-03T15:45:07;11;10;
48893;PMS5003;34710;35.798;139.446;2022-09-03T15:47:49;13;7;
48893;PMS5003;34710;35.798;139.446;2022-09-03T15:50:25;14;10;
48893;PMS5003;34710;35.798;139.446;2022-09-03T15:53:02;10;10;
48893;PMS5003;34710;35.798;139.446;2022-09-03T15:55:42;11;7;
48893;PMS5003;34710;35.798;139.446;2022-09-03T15:58:22;15;10;
48893;PMS5003;34710;35.798;139.446;2022-09-03T16:00:59;15;10;
48893;PMS5003;34710;35.798;139.446;2022-09-03T16:03:34;11;10;
48893;PMS5003;34710;35.798;139.446;2022-09-03T16:06:17;10;7;
48893;PMS5003;34710;35.798;139.446;2022-09-03T16:08:56;10;8;
48893;PMS5003;34710;35.798;139.446;2022-09-03T16:11:33;10;10;
48893;PMS5003;34710;35.798;139.446;2022-09-03T16:14:08;14;10;
48893;PMS5003;34710;35.798;139.446;2022-09-03T16:16:48;15;11;
48893;PMS5003;34710;35.798;139.446;2022-09-03T16:19:27;11;10;
48893;PMS5003;34710;35.798;139.446;2022-09-03T16:22:02;12;9;
48893;PMS5003;34710;35.798;139.446;2022-09-03T16:24:41;11;9;
48893;PMS5003;34710;35.798;139.446;2022-09-03T16:27:16;11;9;
48893;PMS5003;34710;35.798;139.446;2022-09-03T16:29:57;7;7;
48893;PMS5003;34710;35.798;139.446;2022-09-03T16:32:34;9;9;
48893;PMS5003;34710;35.798;139.446;2022-09-03T16:35:15;12;9;
48893;PMS5003;34710;35.798;139.446;2022-09-03T16:37:55;10;9;
48893;PMS5003;34710;35.798;139.446;2022-09-03T16:40:35;11;9;
48893;PMS5003;34710;35.798;139.446;2022-09-03T16:43:13;9;9;